McKinleyville, CA

9:53 AM PDT on March 30, 2017 (GMT -0700)
| | Change Station

Elev -9999 ft 0.00 °N, 0.00 °E | Updated

Mostly Cloudy
Mostly Cloudy
°F
Feels Like °F
N
Wind Variable Wind from North
Gusts mph

Today
High -- | Low -- °F
--% Chance of Precip.
Yesterday
High -- | Low -- °F
Precip. -- in
Pressure 30.27 in
Visibility 7.0 miles
Clouds Few 2300 ft
Scattered Clouds 4900 ft
Mostly Cloudy 6000 ft
Dew Point Not available.
Humidity Not available.
Rainfall --
Snow Depth Not available.
7:02 AM 7:39 PM
Waxing Crescent, 9% visible
METAR KACV 301553Z AUTO 01006KT 7SM FEW023 SCT049 BKN060 09/08 A3025 RMK AO2 RAB1454E23 SLP248 P0000 T00940078
Pressure 30.27 in
Visibility 7.0 miles
Clouds Few 2300 ft
Scattered Clouds 4900 ft
Mostly Cloudy 6000 ft
Dew Point Not available.
Humidity Not available.
Rainfall --
Snow Depth Not available.
7:02 AM 7:39 PM
Waxing Crescent, 9% visible
METAR KACV 301553Z AUTO 01006KT 7SM FEW023 SCT049 BKN060 09/08 A3025 RMK AO2 RAB1454E23 SLP248 P0000 T00940078

Get Severe Weather Alerts

Thanks for signing up!

Be on the lookout for a verification email in your inbox.

You'll start receiving the daily forecast at 8 AM.

×

10-Day Weather Forecast

Almanac

Astronomy

Mar. 30, 2017 Rise Set
Actual Time
Civil Twilight
Nautical Twilight
Astronomical Twilight
Moon
Length of Visible Light
Length of Day
Tomorrow will be .
, % of the Moon is Illuminated

Today's Extremes

State Highs State Lows

Community

WunderPhotos

Upload Photos

1,962,540 photos uploaded!

WunderBlog® & News

Nearby

Air Quality

  Air Quality AQ Index Pollutant
Not available.

Snow Depth

Station Depth Elevation

Earthquake Activity

City Distance Mag. Time & Date
Minimum magnitude displayed is 2.5.

Earthquake Activity

City Distance Mag. Time & Date
Minimum magnitude displayed is 2.5.

Coastal Water Temperatures

Place Temperature

Stations

Nearby Weather Stations

Station Location Temp. Windchill Dew Point Humidity Wind Precip. Elev Updated Type
                   

Watches & Warnings

There are currently no watches in effect.